createdAt,value
2017-11-20T09:30:20.053Z,4.20
2017-11-20T09:32:49.443Z,4.30
2017-11-20T09:35:18.889Z,4.40
2017-11-20T09:37:48.726Z,4.40
2017-11-20T09:40:17.998Z,4.40
2017-11-20T09:42:47.906Z,4.50
2017-11-20T09:45:18.328Z,4.40
2017-11-20T09:47:47.517Z,4.60
2017-11-20T09:50:18.588Z,4.70
2017-11-20T09:52:48.505Z,4.70
2017-11-20T09:55:21.894Z,4.70
2017-11-20T09:57:53.205Z,4.70
2017-11-20T10:00:26.823Z,4.60
2017-11-20T10:02:56.706Z,4.60
2017-11-20T10:05:26.977Z,4.50
2017-11-20T10:07:56.886Z,4.40
2017-11-20T10:10:26.809Z,4.40
2017-11-20T10:12:56.814Z,4.50
2017-11-20T10:15:28.341Z,4.50
2017-11-20T10:17:57.483Z,4.40
2017-11-20T10:20:27.638Z,4.40
2017-11-20T10:22:56.832Z,4.40
2017-11-20T10:25:33.190Z,4.40
2017-11-20T10:28:08.791Z,4.40
2017-11-20T10:30:39.972Z,4.40
2017-11-20T10:33:12.218Z,4.40
2017-11-20T10:35:42.986Z,4.40
2017-11-20T10:38:12.283Z,4.40
2017-11-20T10:40:44.693Z,4.40
2017-11-20T10:43:15.242Z,4.30
2017-11-20T10:45:45.246Z,4.30
2017-11-20T10:48:15.356Z,4.30
2017-11-20T10:50:44.718Z,4.30
2017-11-20T10:53:14.645Z,4.30
2017-11-20T10:55:45.388Z,4.40
2017-11-20T10:58:15.452Z,4.40
2017-11-20T11:00:47.026Z,4.50
2017-11-20T11:03:16.544Z,4.40
2017-11-20T11:05:47.516Z,4.50
2017-11-20T11:08:17.525Z,4.40
2017-11-20T11:10:47.018Z,4.40
2017-11-20T11:13:18.157Z,4.30
2017-11-20T11:15:47.616Z,4.20
2017-11-20T11:18:17.675Z,4.20
2017-11-20T11:20:48.532Z,4.20
2017-11-20T11:23:17.815Z,4.30
2017-11-20T11:25:51.474Z,4.30
2017-11-20T11:28:22.156Z,4.30
2017-11-20T11:30:59.483Z,4.20
2017-11-20T11:33:29.549Z,4.20
2017-11-20T11:35:59.973Z,4.30
2017-11-20T11:38:30.378Z,4.20
2017-11-20T11:40:59.577Z,4.40
2017-11-20T11:43:29.624Z,4.30
2017-11-20T11:46:00.128Z,4.30
2017-11-20T11:48:30.192Z,4.30
2017-11-20T11:51:01.709Z,4.20
2017-11-20T11:53:31.805Z,4.20
2017-11-20T11:59:04.248Z,4.20
2017-11-20T12:01:35.677Z,4.20
2017-11-20T12:04:06.567Z,4.20
2017-11-20T12:06:36.721Z,4.30
2017-11-20T12:09:08.965Z,4.20
2017-11-20T12:11:38.435Z,4.20
2017-11-20T12:14:09.528Z,4.20
2017-11-20T12:16:41.876Z,4.20
2017-11-20T12:19:12.286Z,4.10
2017-11-20T12:21:42.421Z,4.20
2017-11-20T12:24:14.116Z,4.10
2017-11-20T12:26:44.776Z,4.10
2017-11-20T12:29:14.966Z,4.10
2017-11-20T12:31:44.739Z,4.10
2017-11-20T12:34:15.783Z,4.20
2017-11-20T12:36:45.124Z,4.10
2017-11-20T12:39:14.506Z,4.10
2017-11-20T12:41:44.696Z,4.10
2017-11-20T12:44:13.961Z,4.00
2017-11-20T12:46:43.951Z,4.10
2017-11-20T12:49:13.504Z,4.10
2017-11-20T12:51:42.757Z,4.10
2017-11-20T12:54:12.069Z,4.00
2017-11-20T12:56:41.332Z,4.00
2017-11-20T12:59:10.662Z,4.10
2017-11-20T13:01:40.858Z,4.00
2017-11-20T13:04:12.742Z,4.00
2017-11-20T13:06:43.365Z,4.00
2017-11-20T13:09:28.414Z,3.90
2017-11-20T13:11:59.198Z,3.80
2017-11-20T13:14:29.786Z,3.70
2017-11-20T13:17:00.422Z,3.70
2017-11-20T13:19:30.510Z,3.60
2017-11-20T13:21:59.826Z,3.50
2017-11-20T13:24:30.029Z,3.50
2017-11-20T13:26:59.485Z,3.40
2017-11-20T13:29:29.654Z,3.40
2017-11-20T13:32:00.147Z,3.30
2017-11-20T13:34:30.991Z,3.40
2017-11-20T13:37:00.456Z,3.30
2017-11-20T13:39:31.851Z,3.30
2017-11-20T13:42:01.071Z,3.30
2017-11-20T13:44:30.783Z,3.30
2017-11-20T13:47:00.762Z,3.20
2017-11-20T13:49:30.959Z,3.10
2017-11-20T13:52:00.226Z,3.10
2017-11-20T13:54:30.456Z,3.20
2017-11-20T13:57:03.513Z,3.00
2017-11-20T13:59:33.060Z,3.00
2017-11-20T14:02:03.439Z,3.00
2017-11-20T14:04:33.792Z,3.00
2017-11-20T14:07:04.279Z,3.00
2017-11-20T14:09:33.669Z,2.90
2017-11-20T14:12:10.648Z,3.00
2017-11-20T14:14:41.042Z,2.90
2017-11-20T14:17:16.576Z,2.80
2017-11-20T14:19:46.892Z,2.80
2017-11-20T14:22:17.994Z,2.70
2017-11-20T14:24:49.711Z,2.80
2017-11-20T14:27:22.856Z,2.80
2017-11-20T14:29:53.013Z,2.70
2017-11-20T14:32:24.369Z,2.60
2017-11-20T14:34:55.501Z,2.60
2017-11-20T14:37:26.665Z,2.60
2017-11-20T14:39:56.120Z,2.50
2017-11-20T14:42:25.531Z,2.40
2017-11-20T14:44:54.870Z,2.40
2017-11-20T14:47:28.698Z,2.40
2017-11-20T14:49:57.920Z,2.30
2017-11-20T14:52:29.216Z,2.30
2017-11-20T14:54:59.316Z,2.30
2017-11-20T14:57:29.861Z,2.20
2017-11-20T14:59:59.864Z,2.30
2017-11-20T15:02:29.172Z,2.30
2017-11-20T15:04:59.186Z,2.30
2017-11-20T15:07:29.279Z,2.20
2017-11-20T15:09:58.676Z,2.20
2017-11-20T15:12:29.120Z,2.20
2017-11-20T15:14:58.370Z,2.10
2017-11-20T15:17:27.768Z,2.20
2017-11-20T15:19:57.132Z,2.20
2017-11-20T15:22:32.570Z,2.20
2017-11-20T15:27:43.085Z,2.10
2017-11-20T15:30:17.413Z,2.00
2017-11-20T15:32:48.526Z,2.00
2017-11-20T15:35:18.822Z,1.90
2017-11-20T15:37:48.815Z,2.10
2017-11-20T15:40:18.191Z,2.00
2017-11-20T15:42:47.386Z,2.00
2017-11-20T15:45:16.704Z,2.00
2017-11-20T15:47:45.776Z,2.00
2017-11-20T15:50:19.236Z,2.00
2017-11-20T15:52:51.604Z,1.90
2017-11-20T15:55:24.498Z,1.90
2017-11-20T15:57:54.692Z,1.90
2017-11-20T16:00:26.455Z,2.00
2017-11-20T16:02:55.514Z,2.00
2017-11-20T16:05:24.862Z,1.90
2017-11-20T16:07:54.353Z,1.90
2017-11-20T16:10:27.377Z,2.00
2017-11-20T16:12:59.362Z,2.00
2017-11-20T16:15:30.709Z,2.00
2017-11-20T16:17:59.963Z,1.90
2017-11-20T16:20:44.353Z,1.90
2017-11-20T16:23:17.613Z,1.90
2017-11-20T16:25:47.271Z,1.80
2017-11-20T16:28:22.199Z,2.00
2017-11-20T16:30:54.523Z,1.90
2017-11-20T16:33:27.608Z,1.90
2017-11-20T16:35:58.099Z,2.00
2017-11-20T16:38:28.337Z,1.90
2017-11-20T16:40:58.768Z,2.00
2017-11-20T16:43:28.967Z,1.90
2017-11-20T16:45:58.340Z,1.90
2017-11-20T16:48:28.987Z,2.00
2017-11-20T16:50:58.285Z,2.00
2017-11-20T16:53:27.536Z,2.00
2017-11-20T16:55:57.500Z,2.00
2017-11-20T16:58:41.137Z,2.00
2017-11-20T17:01:18.166Z,1.90
2017-11-20T17:03:49.070Z,2.00
2017-11-20T17:06:18.808Z,2.00
2017-11-20T17:08:48.946Z,2.00
2017-11-20T17:11:18.860Z,2.00
2017-11-20T17:13:47.984Z,2.00
2017-11-20T17:16:26.050Z,2.00
2017-11-20T17:19:02.229Z,2.00
2017-11-20T17:21:31.435Z,2.10
2017-11-20T17:24:00.568Z,2.00
2017-11-20T17:26:37.015Z,2.10
2017-11-20T17:29:06.656Z,2.10
2017-11-20T17:31:36.036Z,2.10
2017-11-20T17:34:08.066Z,2.10
2017-11-20T17:36:38.221Z,2.10
2017-11-20T17:39:19.359Z,2.10
2017-11-20T17:41:50.286Z,2.00
2017-11-20T17:44:20.475Z,2.00
2017-11-20T17:46:51.108Z,2.10
2017-11-20T17:49:22.825Z,2.10
2017-11-20T17:51:52.336Z,2.00
2017-11-20T17:54:24.707Z,2.00
2017-11-20T17:56:54.829Z,2.00
2017-11-20T17:59:24.938Z,2.00
2017-11-20T18:01:54.212Z,2.00
2017-11-20T18:04:23.454Z,2.00
2017-11-20T18:06:53.629Z,2.00
2017-11-20T18:09:25.717Z,2.00
2017-11-20T18:11:57.653Z,2.00
2017-11-20T18:14:27.517Z,2.00
2017-11-20T18:16:57.000Z,2.00
2017-11-20T18:19:27.526Z,2.00
2017-11-20T18:21:58.175Z,2.00
2017-11-20T18:24:28.594Z,2.10
2017-11-20T18:26:58.152Z,2.00
2017-11-20T18:29:27.524Z,2.10
2017-11-20T18:31:57.306Z,2.10
2017-11-20T18:34:27.163Z,2.10
2017-11-20T18:36:57.147Z,2.10
2017-11-20T18:39:27.224Z,2.20
2017-11-20T18:41:56.605Z,2.10
2017-11-20T18:44:25.962Z,2.20
2017-11-20T18:46:55.975Z,2.20
2017-11-20T18:49:27.097Z,2.20
2017-11-20T18:51:57.018Z,2.20
2017-11-20T18:54:32.578Z,2.30
2017-11-20T18:57:02.631Z,2.30
2017-11-20T18:59:31.845Z,2.20
2017-11-20T19:02:12.188Z,2.30
2017-11-20T19:07:08.057Z,2.40
2017-11-20T19:09:38.100Z,2.40
2017-11-20T19:12:07.408Z,2.40
2017-11-20T19:14:37.766Z,2.50
2017-11-20T19:17:06.981Z,2.40
2017-11-20T19:19:36.409Z,2.50
2017-11-20T19:22:08.338Z,2.50
2017-11-20T19:24:38.343Z,2.60
2017-11-20T19:27:08.224Z,2.50
2017-11-20T19:29:38.433Z,2.60
2017-11-20T19:32:07.823Z,2.60
2017-11-20T19:34:37.468Z,2.60
2017-11-20T19:37:09.391Z,2.70
2017-11-20T19:39:38.524Z,2.60
2017-11-20T19:42:08.498Z,2.70
2017-11-20T19:44:37.590Z,2.70
2017-11-20T19:47:06.855Z,2.70
2017-11-20T19:49:36.083Z,2.70
2017-11-20T19:52:06.156Z,2.80
2017-11-20T19:54:36.273Z,2.80
2017-11-20T19:57:05.616Z,2.70
2017-11-20T19:59:35.662Z,2.80
2017-11-20T20:02:05.162Z,2.80
2017-11-20T20:04:34.393Z,2.90
2017-11-20T20:07:03.882Z,2.90
2017-11-20T20:09:34.082Z,2.90
2017-11-20T20:12:06.040Z,2.90
2017-11-20T20:15:00.157Z,2.90
2017-11-20T20:17:35.197Z,2.80
2017-11-20T20:20:15.406Z,3.00
2017-11-20T20:22:47.664Z,2.90
2017-11-20T20:25:18.005Z,3.00
2017-11-20T20:27:53.552Z,2.90
2017-11-20T20:30:23.063Z,3.00
2017-11-20T20:32:57.957Z,3.00
2017-11-20T20:35:27.450Z,3.00
2017-11-20T20:37:57.214Z,3.00
2017-11-20T20:40:28.149Z,3.10
2017-11-20T20:42:57.310Z,3.10
2017-11-20T20:45:27.422Z,3.10
2017-11-20T20:47:56.640Z,3.10
2017-11-20T20:50:28.170Z,3.10
2017-11-20T20:52:57.973Z,3.10
2017-11-20T20:55:27.605Z,3.10
2017-11-20T20:57:56.932Z,3.10
2017-11-20T21:00:29.950Z,3.20
2017-11-20T21:03:00.125Z,3.20
2017-11-20T21:05:31.323Z,3.10
2017-11-20T21:08:01.373Z,3.20
2017-11-20T21:10:44.063Z,3.10
2017-11-20T21:13:14.192Z,3.20
2017-11-20T21:15:43.643Z,3.20
2017-11-20T21:18:12.835Z,3.20
2017-11-20T21:20:43.903Z,3.20
2017-11-20T21:23:13.882Z,3.20
2017-11-20T21:25:43.091Z,3.20
2017-11-20T21:28:12.799Z,3.30
2017-11-20T21:30:41.978Z,3.30
2017-11-20T21:33:11.102Z,3.30
2017-11-20T21:35:40.258Z,3.30
2017-11-20T21:38:09.569Z,3.30
2017-11-20T21:40:39.730Z,3.30
2017-11-20T21:43:09.706Z,3.30
2017-11-20T21:45:39.170Z,3.30
2017-11-20T21:48:09.050Z,3.30
2017-11-20T21:50:38.241Z,3.30
2017-11-20T21:53:09.390Z,3.30
2017-11-20T21:55:38.690Z,3.40
2017-11-20T21:58:07.856Z,3.40
2017-11-20T22:00:37.385Z,3.40
2017-11-20T22:03:11.943Z,3.50
2017-11-20T22:05:41.893Z,3.40
2017-11-20T22:08:11.032Z,3.40
2017-11-20T22:10:40.230Z,3.50
2017-11-20T22:13:18.236Z,3.50
2017-11-20T22:15:47.535Z,3.50
2017-11-20T22:18:17.002Z,3.50
2017-11-20T22:20:47.854Z,3.50
2017-11-20T22:23:17.631Z,3.50
2017-11-20T22:25:46.936Z,3.50
2017-11-20T22:28:16.099Z,3.60
2017-11-20T22:30:45.908Z,3.60
2017-11-20T22:33:17.011Z,3.60
2017-11-20T22:35:47.609Z,3.70
2017-11-20T22:38:17.072Z,3.60
2017-11-20T22:40:46.701Z,3.70
2017-11-20T22:43:20.698Z,3.70
2017-11-20T22:45:52.053Z,3.80
2017-11-20T22:48:21.990Z,3.80
2017-11-20T22:50:51.063Z,3.70
2017-11-20T22:53:20.864Z,3.80
2017-11-20T22:55:49.905Z,3.80
2017-11-20T22:58:19.046Z,3.90
2017-11-20T23:00:48.384Z,3.90
2017-11-20T23:03:18.581Z,3.90
2017-11-20T23:05:48.582Z,3.90
2017-11-20T23:08:17.887Z,3.90
2017-11-20T23:10:48.083Z,4.00
2017-11-20T23:13:17.327Z,3.90
2017-11-20T23:15:47.267Z,4.00
2017-11-20T23:18:17.260Z,4.00
2017-11-20T23:20:46.488Z,4.00
2017-11-20T23:23:22.197Z,4.10
2017-11-20T23:25:51.324Z,4.10
2017-11-20T23:28:20.469Z,4.10
2017-11-20T23:30:49.790Z,4.10
2017-11-20T23:33:19.830Z,4.10
2017-11-20T23:35:49.116Z,4.10
2017-11-20T23:38:19.219Z,4.20
2017-11-20T23:40:49.233Z,4.20
2017-11-20T23:43:18.742Z,4.20
2017-11-20T23:45:48.832Z,4.30
2017-11-20T23:48:18.081Z,4.20
2017-11-20T23:50:48.109Z,4.30
2017-11-20T23:53:26.835Z,4.30
2017-11-20T23:55:55.984Z,4.30
2017-11-20T23:58:26.948Z,4.40
